Heyuan, China
Current Conditions -  °F | °C
As of 2:00 PM on Sunday 23 Nov 2014 (Local Time) from ZGGG Reporting Station
Scattered Clouds Scattered Clouds  
Wind Chill: 84°   Ceiling: Unl
Heat Index: 85°   Visibility: 6mi
Dew Point: 63°   Wind: 4mph
Humidity: 48%   Direction: 160°SSE
Pressure: 29.94"   Gusts: NA
Location:  23.73°N, 114.68°E
Report Text: ZGGG 230600Z 16002MPS 120V200 9999 SCT040 29/17 Q1014 NOSIG
Loading
Personal Weather Stations






























Interactive Weather Map New forecast layout! Learn more

10-Day Weather Forecast

Advertisements
Track Severe Weather on mobile